createdAt,value
2023-03-05T00:03:02.056Z,99473.53
2023-03-05T00:08:04.884Z,99471.09
2023-03-05T00:13:08.014Z,99464.41
2023-03-05T00:18:10.586Z,99457.23
2023-03-05T00:23:13.647Z,99449.00
2023-03-05T00:28:16.739Z,99442.39
2023-03-05T00:33:19.318Z,99435.45
2023-03-05T00:38:21.958Z,99428.79
2023-03-05T00:43:24.505Z,99426.77
2023-03-05T00:48:27.275Z,99418.52
2023-03-05T00:53:30.275Z,99416.18
2023-03-05T00:58:33.208Z,99413.31
2023-03-05T01:03:36.541Z,99410.64
2023-03-05T01:08:39.404Z,99403.73
2023-03-05T01:13:41.956Z,99399.33
2023-03-05T01:18:44.450Z,99394.58
2023-03-05T01:23:46.990Z,99395.64
2023-03-05T01:28:49.540Z,99393.77
2023-03-05T01:33:53.518Z,99385.44
2023-03-05T01:38:56.112Z,99380.80
2023-03-05T01:43:58.675Z,99379.11
2023-03-05T01:49:22.345Z,99375.96
2023-03-05T01:54:31.478Z,99371.48
2023-03-05T01:59:34.450Z,99370.63
2023-03-05T02:04:48.282Z,99369.98
2023-03-05T02:09:50.983Z,99365.92
2023-03-05T02:14:59.090Z,99366.09
2023-03-05T02:20:20.141Z,99358.45
2023-03-05T02:25:23.965Z,99356.79
2023-03-05T02:30:26.529Z,99350.27
2023-03-05T02:35:29.122Z,99346.48
2023-03-05T02:40:31.900Z,99341.34
2023-03-05T02:45:35.049Z,99340.96
2023-03-05T02:50:39.616Z,99336.95
2023-03-05T02:55:42.438Z,99341.70
2023-03-05T03:00:46.636Z,99334.67
2023-03-05T03:05:49.302Z,99334.20
2023-03-05T03:10:51.939Z,99327.58
2023-03-05T03:16:12.104Z,99325.48
2023-03-05T03:21:23.816Z,99320.89
2023-03-05T03:26:26.721Z,99313.80
2023-03-05T03:31:29.317Z,99306.54
2023-03-05T03:36:32.315Z,99303.77
2023-03-05T03:41:34.954Z,99293.09
2023-03-05T03:46:39.342Z,99283.40
2023-03-05T03:51:42.050Z,99270.43
2023-03-05T03:56:45.254Z,99263.65
2023-03-05T04:01:48.124Z,99256.06
2023-03-05T04:06:50.699Z,99246.69
2023-03-05T04:11:53.238Z,99238.09
2023-03-05T04:16:55.906Z,99230.73
2023-03-05T04:21:59.038Z,99222.83
2023-03-05T04:27:01.623Z,99219.59
2023-03-05T04:32:04.873Z,99212.66
2023-03-05T04:37:07.546Z,99200.88
2023-03-05T04:42:10.570Z,99195.02
2023-03-05T04:47:13.094Z,99189.75
2023-03-05T04:52:16.079Z,99186.91
2023-03-05T04:57:18.675Z,99181.21
2023-03-05T05:02:21.244Z,99181.42
2023-03-05T05:07:23.863Z,99180.45
2023-03-05T05:12:29.885Z,99172.95
2023-03-05T05:17:33.002Z,99171.42
2023-03-05T05:22:35.735Z,99168.31
2023-03-05T05:27:40.045Z,99173.68
2023-03-05T05:32:42.770Z,99176.89
2023-03-05T05:37:45.515Z,99180.00
2023-03-05T05:42:48.147Z,99177.60
2023-03-05T05:47:50.722Z,99186.02
2023-03-05T05:52:53.274Z,99185.56
2023-03-05T05:57:55.869Z,99188.13
2023-03-05T06:02:58.485Z,99177.70
2023-03-05T06:08:01.317Z,99173.46
2023-03-05T06:13:04.202Z,99172.05
2023-03-05T06:18:06.794Z,99176.63
2023-03-05T06:23:09.398Z,99174.39
2023-03-05T06:28:12.048Z,99180.66
2023-03-05T06:33:14.639Z,99179.94
2023-03-05T06:38:17.203Z,99177.10
2023-03-05T06:43:19.875Z,99181.08
2023-03-05T06:48:22.500Z,99181.39
2023-03-05T06:53:26.213Z,99186.15
2023-03-05T06:58:28.819Z,99173.42
2023-03-05T07:03:31.365Z,99171.38
2023-03-05T07:08:34.230Z,99166.44
2023-03-05T07:13:36.810Z,99164.52
2023-03-05T07:18:39.464Z,99165.29
2023-03-05T07:23:42.045Z,99157.04
2023-03-05T07:28:44.719Z,99159.04
2023-03-05T07:33:49.003Z,99156.96
2023-03-05T07:38:51.593Z,99155.56
2023-03-05T07:43:55.665Z,99154.20
2023-03-05T07:48:58.600Z,99148.44
2023-03-05T07:54:01.296Z,99138.33
2023-03-05T07:59:13.573Z,99130.45
2023-03-05T08:04:16.403Z,99131.64
2023-03-05T08:09:19.860Z,99132.24
2023-03-05T08:14:22.907Z,99139.03
2023-03-05T08:19:25.492Z,99141.25
2023-03-05T08:24:29.831Z,99139.20
2023-03-05T08:29:32.514Z,99139.55
2023-03-05T08:34:35.100Z,99136.41
2023-03-05T08:39:37.647Z,99133.71
2023-03-05T08:44:40.279Z,99124.80
2023-03-05T08:49:42.849Z,99124.77
2023-03-05T08:54:45.437Z,99123.36
2023-03-05T08:59:48.272Z,99119.73
2023-03-05T09:04:50.869Z,99120.89
2023-03-05T09:09:53.444Z,99119.82
2023-03-05T09:14:56.642Z,99117.45
2023-03-05T09:19:59.372Z,99116.45
2023-03-05T09:25:02.001Z,99116.36
2023-03-05T09:30:06.450Z,99110.26
2023-03-05T09:35:09.764Z,99109.13
2023-03-05T09:40:17.929Z,99106.66
2023-03-05T09:45:27.527Z,99104.77
2023-03-05T09:50:39.003Z,99099.89
2023-03-05T09:55:46.404Z,99099.77
2023-03-05T10:00:54.486Z,99093.05
2023-03-05T10:06:17.321Z,99087.55
2023-03-05T10:11:41.558Z,99088.21
2023-03-05T10:17:01.417Z,99086.31
2023-03-05T10:22:36.121Z,99077.67
2023-03-05T10:27:56.910Z,99074.29
2023-03-05T10:33:33.252Z,99071.83
2023-03-05T10:38:54.674Z,99065.34
2023-03-05T10:44:03.613Z,99071.55
2023-03-05T10:49:28.540Z,99076.33
2023-03-05T10:54:33.954Z,99075.73
2023-03-05T10:59:36.517Z,99066.98
2023-03-05T11:04:40.475Z,99058.81
2023-03-05T11:10:04.722Z,99054.40
2023-03-05T11:15:10.342Z,99047.16
2023-03-05T11:20:36.632Z,99039.05
2023-03-05T11:25:55.466Z,99032.63
2023-03-05T11:31:02.853Z,99027.63
2023-03-05T11:36:23.855Z,99029.71
2023-03-05T11:41:44.888Z,99025.05
2023-03-05T11:46:52.569Z,99022.42
2023-03-05T11:52:08.543Z,99009.83
2023-03-05T11:57:15.162Z,99017.09
2023-03-05T12:02:22.087Z,99029.55
2023-03-05T12:07:48.007Z,99055.34
2023-03-05T12:13:19.217Z,99049.16
2023-03-05T12:18:36.649Z,99032.54
2023-03-05T12:23:59.069Z,99030.95
2023-03-05T12:29:01.664Z,99027.30
2023-03-05T12:34:38.195Z,99013.41
2023-03-05T12:39:45.462Z,99011.95
2023-03-05T12:45:19.122Z,99007.36
2023-03-05T12:50:28.032Z,99004.88
2023-03-05T12:55:48.456Z,99000.42
2023-03-05T13:01:15.092Z,98991.27
2023-03-05T13:06:34.845Z,98995.26
2023-03-05T13:11:39.203Z,98992.09
2023-03-05T13:16:41.910Z,98992.59
2023-03-05T13:21:44.868Z,98993.27
2023-03-05T13:26:47.468Z,98993.52
2023-03-05T13:32:00.362Z,98993.77
2023-03-05T13:37:14.590Z,98998.34
2023-03-05T13:42:20.132Z,98992.17
2023-03-05T13:47:24.559Z,98987.78
2023-03-05T13:52:36.523Z,98985.46
2023-03-05T13:57:40.692Z,98990.75
2023-03-05T14:02:44.147Z,98985.92
2023-03-05T14:07:49.978Z,98982.19
2023-03-05T14:12:52.856Z,98975.99
2023-03-05T14:18:19.833Z,98973.55
2023-03-05T14:23:37.303Z,98968.19
2023-03-05T14:28:40.549Z,98966.69
2023-03-05T14:33:44.189Z,98964.56
2023-03-05T14:38:46.816Z,98962.14
2023-03-05T14:43:49.423Z,98965.16
2023-03-05T14:48:52.237Z,98965.33
2023-03-05T14:53:55.796Z,98961.33
2023-03-05T14:58:58.453Z,98963.35
2023-03-05T15:04:01.056Z,98965.80
2023-03-05T15:09:05.836Z,98960.08
2023-03-05T15:14:10.303Z,98962.20
2023-03-05T15:19:13.591Z,98963.03
2023-03-05T15:24:16.369Z,98959.06
2023-03-05T15:29:19.031Z,98959.88
2023-03-05T15:34:21.620Z,98961.94
2023-03-05T15:39:27.171Z,98959.37
2023-03-05T15:44:30.288Z,98959.48
2023-03-05T15:49:33.219Z,98965.05
2023-03-05T15:54:36.946Z,98971.84
2023-03-05T15:59:39.605Z,98967.83
2023-03-05T16:04:42.257Z,98963.02
2023-03-05T16:09:49.493Z,98967.83
2023-03-05T16:14:52.416Z,98976.03
2023-03-05T16:19:55.907Z,98978.70
2023-03-05T16:25:01.155Z,98979.70
2023-03-05T16:30:04.940Z,98983.74
2023-03-05T16:35:11.778Z,98983.92
2023-03-05T16:40:17.232Z,98988.73
2023-03-05T16:45:19.933Z,98993.06
2023-03-05T16:50:22.609Z,98989.34
2023-03-05T16:55:25.741Z,98988.47
2023-03-05T17:00:29.345Z,98985.45
2023-03-05T17:05:35.046Z,98984.64
2023-03-05T17:10:37.714Z,98989.38
2023-03-05T17:15:40.501Z,98992.49
2023-03-05T17:20:53.148Z,98992.73
2023-03-05T17:26:10.035Z,98989.40
2023-03-05T17:31:27.467Z,98987.60
2023-03-05T17:36:44.102Z,98985.69
2023-03-05T17:41:48.476Z,98985.52
2023-03-05T17:46:51.800Z,98985.45
2023-03-05T17:51:54.504Z,98987.00
2023-03-05T17:56:57.925Z,98985.05
2023-03-05T18:02:00.885Z,98985.77
2023-03-05T18:07:03.952Z,98986.03
2023-03-05T18:12:06.666Z,98988.97
2023-03-05T18:17:09.262Z,98987.61
2023-03-05T18:22:13.097Z,98990.52
2023-03-05T18:27:15.922Z,98991.14
2023-03-05T18:32:18.956Z,98986.10
2023-03-05T18:37:21.888Z,98990.64
2023-03-05T18:42:24.536Z,98987.88
2023-03-05T18:47:28.015Z,98984.31
2023-03-05T18:52:30.607Z,98988.86
2023-03-05T18:57:33.466Z,98989.16
2023-03-05T19:02:36.118Z,98990.91
2023-03-05T19:07:39.307Z,98993.27
2023-03-05T19:13:02.363Z,98990.37
2023-03-05T19:18:04.970Z,98993.61
2023-03-05T19:23:08.079Z,98996.14
2023-03-05T19:28:10.811Z,98994.27
2023-03-05T19:33:13.588Z,98992.41
2023-03-05T19:38:16.689Z,98994.37
2023-03-05T19:43:19.269Z,98998.48
2023-03-05T19:48:22.007Z,99005.05
2023-03-05T19:53:24.625Z,99006.59
2023-03-05T19:58:27.182Z,99005.40
2023-03-05T20:03:29.818Z,99007.86
2023-03-05T20:08:33.300Z,99002.70
2023-03-05T20:13:35.881Z,99004.34
2023-03-05T20:18:38.455Z,99002.95
2023-03-05T20:23:41.829Z,98997.00
2023-03-05T20:28:44.559Z,98997.94
2023-03-05T20:33:48.209Z,98998.20
2023-03-05T20:38:50.799Z,98992.00
2023-03-05T20:43:53.422Z,98993.02
2023-03-05T20:48:59.102Z,98988.59
2023-03-05T20:54:11.367Z,98986.10
2023-03-05T20:59:14.242Z,98981.69
2023-03-05T21:04:17.063Z,98979.29
2023-03-05T21:09:19.703Z,98974.61
2023-03-05T21:14:22.431Z,98970.34
2023-03-05T21:19:25.393Z,98974.85
2023-03-05T21:24:33.450Z,98970.70
2023-03-05T21:29:35.995Z,98967.77
2023-03-05T21:34:38.555Z,98969.39
2023-03-05T21:39:41.217Z,98964.98
2023-03-05T21:44:43.808Z,98965.50
2023-03-05T21:49:46.395Z,98959.35
2023-03-05T21:54:49.104Z,98954.48
2023-03-05T21:59:51.772Z,98956.53
2023-03-05T22:04:54.465Z,98952.58
2023-03-05T22:09:57.790Z,98951.61
2023-03-05T22:15:00.350Z,98954.83
2023-03-05T22:20:04.845Z,98955.27
2023-03-05T22:25:09.055Z,98946.58
2023-03-05T22:30:13.065Z,98942.78
2023-03-05T22:35:15.906Z,98937.78
2023-03-05T22:40:20.930Z,98932.21
2023-03-05T22:45:23.529Z,98930.73
2023-03-05T22:50:26.139Z,98923.41
2023-03-05T22:55:28.821Z,98924.95
2023-03-05T23:00:31.937Z,98931.12
2023-03-05T23:05:35.485Z,98929.05
2023-03-05T23:10:39.092Z,98924.23
2023-03-05T23:15:44.442Z,98919.79
2023-03-05T23:20:56.311Z,98918.66
2023-03-05T23:26:01.219Z,98918.13
2023-03-05T23:31:04.228Z,98909.95
2023-03-05T23:36:06.937Z,98909.13
2023-03-05T23:41:09.544Z,98908.63
2023-03-05T23:46:12.495Z,98903.77
2023-03-05T23:51:15.179Z,98900.84
2023-03-05T23:56:17.803Z,98898.48
